createdAt,value
2022-08-19T00:04:47.681Z,25.50
2022-08-19T00:09:50.551Z,25.60
2022-08-19T00:14:55.324Z,25.60
2022-08-19T00:19:58.217Z,25.60
2022-08-19T00:25:02.236Z,25.60
2022-08-19T00:30:08.419Z,25.60
2022-08-19T00:35:11.759Z,25.50
2022-08-19T00:40:15.184Z,25.40
2022-08-19T00:45:26.513Z,25.30
2022-08-19T00:50:31.104Z,25.30
2022-08-19T00:55:34.673Z,25.20
2022-08-19T01:00:38.532Z,25.10
2022-08-19T01:05:44.243Z,25.10
2022-08-19T01:10:55.484Z,25.00
2022-08-19T01:16:08.088Z,24.90
2022-08-19T01:21:49.617Z,24.80
2022-08-19T01:26:52.584Z,24.80
2022-08-19T01:31:56.485Z,24.80
2022-08-19T01:36:59.262Z,24.70
2022-08-19T01:42:04.269Z,24.60
2022-08-19T01:47:08.208Z,24.50
2022-08-19T01:52:10.982Z,24.50
2022-08-19T01:57:15.730Z,24.40
2022-08-19T02:02:18.588Z,24.30
2022-08-19T02:07:22.659Z,24.20
2022-08-19T02:12:25.526Z,24.10
2022-08-19T02:17:29.921Z,24.00
2022-08-19T02:22:33.159Z,24.00
2022-08-19T02:27:36.221Z,23.90
2022-08-19T02:32:44.632Z,23.90
2022-08-19T02:38:07.383Z,24.00
2022-08-19T02:43:10.891Z,24.00
2022-08-19T02:48:21.816Z,24.00
2022-08-19T02:53:28.891Z,24.00
2022-08-19T02:58:31.717Z,23.90
2022-08-19T03:03:34.942Z,24.00
2022-08-19T03:08:39.746Z,23.90
2022-08-19T03:13:44.407Z,23.90
2022-08-19T03:18:48.181Z,24.00
2022-08-19T03:24:02.236Z,24.00
2022-08-19T03:29:06.659Z,23.90
2022-08-19T03:34:14.998Z,23.80
2022-08-19T03:39:18.520Z,23.80
2022-08-19T03:44:23.187Z,23.70
2022-08-19T03:49:30.532Z,23.60
2022-08-19T03:54:34.242Z,23.60
2022-08-19T03:59:38.759Z,23.60
2022-08-19T04:04:44.773Z,23.60
2022-08-19T04:09:47.730Z,23.60
2022-08-19T04:14:50.562Z,23.60
2022-08-19T04:19:53.414Z,23.70
2022-08-19T04:24:58.998Z,23.70
2022-08-19T04:30:02.047Z,23.80
2022-08-19T04:35:17.890Z,23.80
2022-08-19T04:40:40.596Z,23.80
2022-08-19T04:45:45.539Z,24.00
2022-08-19T04:50:49.343Z,24.00
2022-08-19T04:55:52.858Z,24.20
2022-08-19T05:00:55.812Z,24.30
2022-08-19T05:05:59.475Z,24.30
2022-08-19T05:11:02.440Z,24.50
2022-08-19T05:16:06.227Z,24.60
2022-08-19T05:21:36.572Z,24.60
2022-08-19T05:26:43.866Z,24.80
2022-08-19T05:31:50.352Z,25.00
2022-08-19T05:36:59.716Z,25.10
2022-08-19T05:42:08.142Z,25.30
2022-08-19T05:47:15.879Z,25.40
2022-08-19T05:52:25.576Z,25.60
2022-08-19T05:57:30.141Z,25.70
2022-08-19T06:02:33.095Z,25.90
2022-08-19T06:07:40.582Z,26.10
2022-08-19T06:12:43.839Z,26.20
2022-08-19T06:17:46.885Z,26.40
2022-08-19T06:22:52.443Z,26.60
2022-08-19T06:28:14.791Z,26.70
2022-08-19T06:33:18.730Z,26.90
2022-08-19T06:38:23.907Z,27.00
2022-08-19T06:43:28.110Z,27.20
2022-08-19T06:48:35.548Z,27.40
2022-08-19T06:53:40.614Z,27.60
2022-08-19T06:58:44.195Z,27.80
2022-08-19T07:03:47.510Z,27.90
2022-08-19T07:08:52.677Z,28.10
2022-08-19T07:14:00.118Z,28.20
2022-08-19T07:19:11.826Z,28.40
2022-08-19T07:24:19.177Z,28.50
2022-08-19T07:29:25.818Z,28.70
2022-08-19T07:34:38.173Z,28.90
2022-08-19T07:39:42.939Z,29.10
2022-08-19T07:44:50.208Z,29.30
2022-08-19T07:49:53.596Z,29.50
2022-08-19T07:54:56.523Z,29.70
2022-08-19T07:59:59.912Z,29.90
2022-08-19T08:05:21.062Z,30.10
2022-08-19T08:10:24.237Z,30.40
2022-08-19T08:15:27.590Z,30.60
2022-08-19T08:20:32.211Z,30.90
2022-08-19T08:25:37.298Z,31.20
2022-08-19T08:30:45.138Z,31.40
2022-08-19T08:35:48.759Z,31.50
2022-08-19T08:41:03.295Z,31.70
2022-08-19T08:46:35.708Z,31.90
2022-08-19T08:52:05.705Z,32.10
2022-08-19T08:57:27.533Z,32.30
2022-08-19T09:02:33.725Z,32.40
2022-08-19T09:07:57.374Z,32.50
2022-08-19T09:13:19.111Z,32.70
2022-08-19T09:18:22.105Z,32.90
2022-08-19T09:23:27.036Z,33.20
2022-08-19T09:28:32.531Z,33.50
2022-08-19T09:33:36.014Z,33.60
2022-08-19T09:38:43.469Z,33.70
2022-08-19T09:43:53.107Z,33.80
2022-08-19T09:49:06.185Z,33.90
2022-08-19T09:54:11.360Z,34.10
2022-08-19T09:59:14.435Z,34.10
2022-08-19T10:04:20.126Z,34.40
2022-08-19T10:09:33.727Z,34.50
2022-08-19T10:14:37.430Z,34.70
2022-08-19T10:19:42.281Z,34.90
2022-08-19T10:24:58.180Z,35.00
2022-08-19T10:30:01.114Z,35.30
2022-08-19T10:35:09.110Z,35.70
2022-08-19T10:40:12.687Z,36.10
2022-08-19T10:45:15.627Z,36.20
2022-08-19T10:50:37.249Z,36.30
2022-08-19T10:55:59.322Z,36.30
2022-08-19T11:01:02.183Z,36.30
2022-08-19T11:06:08.876Z,36.40
2022-08-19T11:11:13.395Z,36.60
2022-08-19T11:16:24.555Z,36.80
2022-08-19T11:21:34.365Z,36.80
2022-08-19T11:26:39.661Z,36.90
2022-08-19T11:31:48.227Z,37.10
2022-08-19T11:36:52.904Z,37.40
2022-08-19T11:41:58.247Z,37.60
2022-08-19T11:47:09.334Z,37.60
2022-08-19T11:52:12.453Z,37.70
2022-08-19T11:57:17.872Z,37.90
2022-08-19T12:02:20.733Z,38.10
2022-08-19T12:07:23.620Z,38.20
2022-08-19T12:12:27.728Z,38.50
2022-08-19T12:17:31.796Z,38.70
2022-08-19T12:22:36.125Z,38.60
2022-08-19T12:27:41.668Z,38.60
2022-08-19T12:32:45.643Z,38.50
2022-08-19T12:37:56.608Z,38.30
2022-08-19T12:43:00.617Z,38.10
2022-08-19T12:48:03.862Z,37.90
2022-08-19T12:53:27.110Z,37.90
2022-08-19T12:58:30.694Z,38.10
2022-08-19T13:03:36.417Z,38.30
2022-08-19T13:08:41.426Z,38.40
2022-08-19T13:13:49.325Z,38.50
2022-08-19T13:18:53.014Z,38.70
2022-08-19T13:23:55.828Z,38.80
2022-08-19T13:29:17.501Z,39.00
2022-08-19T13:34:34.898Z,39.20
2022-08-19T13:39:38.435Z,39.40
2022-08-19T13:44:41.372Z,39.30
2022-08-19T13:49:44.140Z,39.20
2022-08-19T13:54:49.315Z,38.90
2022-08-19T13:59:52.691Z,38.50
2022-08-19T14:04:55.467Z,38.10
2022-08-19T14:09:58.276Z,37.20
2022-08-19T14:15:04.081Z,35.90
2022-08-19T14:20:10.963Z,35.00
2022-08-19T14:25:19.590Z,34.40
2022-08-19T14:30:33.411Z,34.00
2022-08-19T14:35:37.194Z,33.60
2022-08-19T14:40:41.612Z,33.40
2022-08-19T14:45:44.774Z,33.40
2022-08-19T14:50:47.766Z,33.40
2022-08-19T14:55:50.883Z,33.30
2022-08-19T15:00:54.215Z,33.00
2022-08-19T15:05:58.747Z,32.90
2022-08-19T15:11:02.958Z,32.70
2022-08-19T15:16:06.109Z,32.50
2022-08-19T15:21:26.975Z,32.20
2022-08-19T15:26:33.302Z,32.00
2022-08-19T15:31:38.077Z,31.80
2022-08-19T15:36:41.601Z,31.70
2022-08-19T15:41:47.199Z,31.60
2022-08-19T15:46:50.172Z,31.50
2022-08-19T15:51:54.519Z,31.30
2022-08-19T15:57:15.825Z,31.20
2022-08-19T16:02:39.814Z,31.20
2022-08-19T16:07:43.232Z,31.10
2022-08-19T16:12:46.284Z,31.00
2022-08-19T16:17:55.426Z,31.00
2022-08-19T16:23:00.377Z,30.90
2022-08-19T16:28:07.994Z,30.90
2022-08-19T16:33:11.705Z,30.90
2022-08-19T16:38:14.577Z,30.90
2022-08-19T16:43:17.452Z,30.90
2022-08-19T16:48:26.408Z,30.90
2022-08-19T16:53:32.021Z,30.80
2022-08-19T16:58:36.088Z,30.70
2022-08-19T17:03:39.974Z,30.70
2022-08-19T17:08:48.093Z,30.60
2022-08-19T17:13:52.709Z,30.60
2022-08-19T17:18:58.655Z,30.30
2022-08-19T17:24:06.169Z,30.10
2022-08-19T17:29:09.889Z,29.80
2022-08-19T17:34:12.734Z,29.60
2022-08-19T17:39:15.620Z,29.40
2022-08-19T17:44:19.402Z,29.30
2022-08-19T17:49:22.554Z,29.20
2022-08-19T17:54:25.630Z,29.10
2022-08-19T17:59:37.636Z,29.10
2022-08-19T18:04:41.397Z,29.10
2022-08-19T18:09:51.721Z,29.20
2022-08-19T18:14:55.639Z,29.30
2022-08-19T18:19:58.485Z,29.20
2022-08-19T18:25:24.308Z,29.20
2022-08-19T18:30:34.056Z,29.30
2022-08-19T18:35:39.266Z,29.30
2022-08-19T18:41:01.065Z,29.10
2022-08-19T18:46:22.245Z,29.00
2022-08-19T18:51:30.147Z,28.90
2022-08-19T18:56:33.332Z,28.90
2022-08-19T19:01:39.628Z,28.90
2022-08-19T19:06:43.397Z,28.80
2022-08-19T19:11:51.175Z,28.70
2022-08-19T19:16:55.436Z,28.40
2022-08-19T19:21:59.339Z,27.90
2022-08-19T19:27:08.444Z,27.50
2022-08-19T19:32:29.528Z,27.30
2022-08-19T19:37:33.165Z,27.10
2022-08-19T19:42:36.407Z,26.80
2022-08-19T19:47:39.872Z,26.50
2022-08-19T19:52:48.311Z,26.10
2022-08-19T19:57:52.675Z,25.90
2022-08-19T20:02:56.043Z,25.70
2022-08-19T20:08:17.488Z,25.50
2022-08-19T20:13:22.288Z,25.20
2022-08-19T20:18:25.394Z,24.70
2022-08-19T20:23:28.270Z,24.40
2022-08-19T20:28:31.971Z,24.10
2022-08-19T20:33:35.180Z,23.80
2022-08-19T20:38:41.959Z,23.50
2022-08-19T20:43:44.715Z,23.40
2022-08-19T20:48:47.729Z,23.40
2022-08-19T20:53:50.595Z,23.30
2022-08-19T20:58:57.848Z,23.20
2022-08-19T21:04:03.426Z,23.10
2022-08-19T21:09:06.489Z,23.00
2022-08-19T21:14:09.378Z,22.90
2022-08-19T21:19:12.917Z,22.60
2022-08-19T21:24:15.728Z,22.50
2022-08-19T21:29:18.689Z,22.30
2022-08-19T21:34:21.486Z,22.30
2022-08-19T21:39:24.531Z,22.20
2022-08-19T21:44:27.433Z,22.00
2022-08-19T21:49:31.458Z,21.90
2022-08-19T21:54:37.858Z,21.80
2022-08-19T21:59:44.114Z,21.70
2022-08-19T22:04:48.433Z,21.60
2022-08-19T22:09:51.770Z,21.60
2022-08-19T22:14:56.042Z,21.60
2022-08-19T22:19:59.038Z,21.60
2022-08-19T22:25:31.520Z,21.60
2022-08-19T22:30:38.214Z,21.70
2022-08-19T22:35:44.697Z,21.80
2022-08-19T22:40:50.435Z,21.90
2022-08-19T22:45:56.104Z,21.90
2022-08-19T22:51:19.522Z,22.00
2022-08-19T22:56:22.493Z,22.10
2022-08-19T23:01:29.836Z,22.00
2022-08-19T23:06:36.369Z,22.00
2022-08-19T23:11:41.712Z,22.00
2022-08-19T23:16:50.709Z,22.00
2022-08-19T23:21:54.133Z,22.00
2022-08-19T23:27:15.869Z,21.90
2022-08-19T23:32:21.017Z,21.90
2022-08-19T23:37:25.484Z,21.80
2022-08-19T23:42:28.990Z,21.70
2022-08-19T23:47:31.951Z,21.70
2022-08-19T23:52:44.815Z,21.70
2022-08-19T23:57:47.887Z,21.70
